createdAt,value
2017-04-14T00:00:05.984Z,10.40
2017-04-14T00:01:06.232Z,10.40
2017-04-14T00:02:05.937Z,10.40
2017-04-14T00:03:05.733Z,10.40
2017-04-14T00:04:06.139Z,10.40
2017-04-14T00:05:06.870Z,10.40
2017-04-14T00:06:07.583Z,10.40
2017-04-14T00:07:07.708Z,10.40
2017-04-14T00:08:07.731Z,10.40
2017-04-14T00:09:08.031Z,10.40
2017-04-14T00:10:07.933Z,10.40
2017-04-14T00:11:07.945Z,10.40
2017-04-14T00:12:07.935Z,10.40
2017-04-14T00:13:07.902Z,10.40
2017-04-14T00:14:08.211Z,10.40
2017-04-14T00:15:08.257Z,10.40
2017-04-14T00:16:09.000Z,10.40
2017-04-14T00:17:08.975Z,10.40
2017-04-14T00:18:08.795Z,10.40
2017-04-14T00:19:08.801Z,10.40
2017-04-14T00:20:08.815Z,10.30
2017-04-14T00:21:08.830Z,10.40
2017-04-14T00:22:08.840Z,10.30
2017-04-14T00:23:13.940Z,10.30
2017-04-14T00:24:14.445Z,10.30
2017-04-14T00:25:15.346Z,10.30
2017-04-14T00:26:15.331Z,10.30
2017-04-14T00:27:15.332Z,10.30
2017-04-14T00:28:16.023Z,10.20
2017-04-14T00:29:16.397Z,10.20
2017-04-14T00:30:16.332Z,10.20
2017-04-14T00:31:17.107Z,10.20
2017-04-14T00:32:17.105Z,10.20
2017-04-14T00:33:17.098Z,10.20
2017-04-14T00:34:17.467Z,10.20
2017-04-14T00:35:17.423Z,10.20
2017-04-14T00:36:17.377Z,10.20
2017-04-14T00:37:17.397Z,10.20
2017-04-14T00:38:17.107Z,10.20
2017-04-14T00:39:17.089Z,10.20
2017-04-14T00:40:17.096Z,10.20
2017-04-14T00:41:17.106Z,10.10
2017-04-14T00:42:16.825Z,10.20
2017-04-14T00:43:16.874Z,10.20
2017-04-14T00:44:16.882Z,10.10
2017-04-14T00:45:17.927Z,10.10
2017-04-14T00:46:17.910Z,10.10
2017-04-14T00:47:17.849Z,10.10
2017-04-14T00:48:17.905Z,10.10
2017-04-14T00:49:17.873Z,10.10
2017-04-14T00:50:18.118Z,10.10
2017-04-14T00:51:18.075Z,10.10
2017-04-14T00:52:18.118Z,10.10
2017-04-14T00:53:17.915Z,10.10
2017-04-14T00:54:17.646Z,10.10
2017-04-14T00:55:17.944Z,10.10
2017-04-14T00:56:17.989Z,10.00
2017-04-14T00:57:17.970Z,10.00
2017-04-14T00:58:17.955Z,10.00
2017-04-14T00:59:18.021Z,10.00
2017-04-14T01:00:18.306Z,10.00
2017-04-14T01:01:19.056Z,10.00
2017-04-14T01:02:18.998Z,9.90
2017-04-14T01:03:18.962Z,9.90
2017-04-14T01:04:18.621Z,9.90
2017-04-14T01:05:18.901Z,9.90
2017-04-14T01:06:19.593Z,9.90
2017-04-14T01:07:19.602Z,9.90
2017-04-14T01:08:19.652Z,9.90
2017-04-14T01:09:20.335Z,9.90
2017-04-14T01:10:20.631Z,9.90
2017-04-14T01:11:20.550Z,9.90
2017-04-14T01:12:20.490Z,9.80
2017-04-14T01:13:21.353Z,9.80
2017-04-14T01:14:21.312Z,9.80
2017-04-14T01:15:22.344Z,9.90
2017-04-14T01:16:23.042Z,9.80
2017-04-14T01:17:23.085Z,9.80
2017-04-14T01:18:23.023Z,9.80
2017-04-14T01:19:22.940Z,9.80
2017-04-14T01:20:23.883Z,9.80
2017-04-14T01:21:23.830Z,9.80
2017-04-14T01:22:23.808Z,9.80
2017-04-14T01:23:24.660Z,9.80
2017-04-14T01:24:24.618Z,9.80
2017-04-14T01:25:24.960Z,9.80
2017-04-14T01:26:25.660Z,9.80
2017-04-14T01:27:25.612Z,9.80
2017-04-14T01:28:25.601Z,9.80
2017-04-14T01:29:26.280Z,9.80
2017-04-14T01:30:26.603Z,9.80
2017-04-14T01:31:26.571Z,9.80
2017-04-14T01:32:26.553Z,9.80
2017-04-14T01:33:27.067Z,9.80
2017-04-14T01:34:27.720Z,9.80
2017-04-14T01:35:28.066Z,9.90
2017-04-14T01:36:28.035Z,9.90
2017-04-14T01:37:27.941Z,9.90
2017-04-14T01:38:27.884Z,9.90
2017-04-14T01:39:27.849Z,9.90
2017-04-14T01:40:28.111Z,9.90
2017-04-14T01:41:28.060Z,9.90
2017-04-14T01:42:28.025Z,9.90
2017-04-14T01:43:27.964Z,9.90
2017-04-14T01:44:27.924Z,9.90
2017-04-14T01:45:28.293Z,9.80
2017-04-14T01:46:28.490Z,9.90
2017-04-14T01:47:28.568Z,9.80
2017-04-14T01:48:29.344Z,9.80
2017-04-14T01:49:29.274Z,9.80
2017-04-14T01:50:29.643Z,9.80
2017-04-14T01:51:29.612Z,9.80
2017-04-14T01:52:29.539Z,9.80
2017-04-14T01:53:30.327Z,9.80
2017-04-14T01:54:30.284Z,9.80
2017-04-14T01:55:30.643Z,9.70
2017-04-14T01:56:30.380Z,9.70
2017-04-14T01:57:30.187Z,9.70
2017-04-14T01:58:30.164Z,9.70
2017-04-14T01:59:30.226Z,9.70
2017-04-14T02:00:30.579Z,9.70
2017-04-14T02:01:30.611Z,9.70
2017-04-14T02:02:31.341Z,9.70
2017-04-14T02:03:31.274Z,9.70
2017-04-14T02:04:31.268Z,9.70
2017-04-14T02:05:31.570Z,9.70
2017-04-14T02:06:32.147Z,9.70
2017-04-14T02:07:32.877Z,9.60
2017-04-14T02:08:33.184Z,9.60
2017-04-14T02:09:33.183Z,9.70
2017-04-14T02:10:33.506Z,9.70
2017-04-14T02:11:33.536Z,9.60
2017-04-14T02:12:33.518Z,9.60
2017-04-14T02:13:33.555Z,9.60
2017-04-14T02:14:33.489Z,9.60
2017-04-14T02:15:33.844Z,9.70
2017-04-14T02:16:33.570Z,9.60
2017-04-14T02:17:34.272Z,9.60
2017-04-14T02:18:34.330Z,9.60
2017-04-14T02:19:39.551Z,9.60
2017-04-14T02:20:39.929Z,9.60
2017-04-14T02:21:39.899Z,9.60
2017-04-14T02:22:39.843Z,9.60
2017-04-14T02:23:39.921Z,9.60
2017-04-14T02:24:40.652Z,9.50
2017-04-14T02:25:40.973Z,9.60
2017-04-14T02:26:40.978Z,9.50
2017-04-14T02:27:40.979Z,9.50
2017-04-14T02:28:40.971Z,9.50
2017-04-14T02:29:40.952Z,9.50
2017-04-14T02:30:41.197Z,9.50
2017-04-14T02:31:41.154Z,9.40
2017-04-14T02:32:41.107Z,9.40
2017-04-14T02:33:41.097Z,9.40
2017-04-14T02:34:41.082Z,9.40
2017-04-14T02:35:41.436Z,9.40
2017-04-14T02:36:41.461Z,9.40
2017-04-14T02:37:41.993Z,9.30
2017-04-14T02:38:41.938Z,9.30
2017-04-14T02:39:41.850Z,9.30
2017-04-14T02:40:42.174Z,9.30
2017-04-14T02:41:42.131Z,9.30
2017-04-14T02:42:42.075Z,9.20
2017-04-14T02:43:42.097Z,9.20
2017-04-14T02:44:42.030Z,9.20
2017-04-14T02:45:42.862Z,9.20
2017-04-14T02:46:42.848Z,9.20
2017-04-14T02:47:42.972Z,9.20
2017-04-14T02:48:43.800Z,9.10
2017-04-14T02:49:43.808Z,9.10
2017-04-14T02:50:44.804Z,9.10
2017-04-14T02:51:44.884Z,9.10
2017-04-14T02:52:44.825Z,9.10
2017-04-14T02:53:44.830Z,9.00
2017-04-14T02:54:44.761Z,9.00
2017-04-14T02:55:45.854Z,9.00
2017-04-14T02:56:45.810Z,9.00
2017-04-14T02:57:45.861Z,9.00
2017-04-14T02:58:45.807Z,8.90
2017-04-14T02:59:45.789Z,8.90
2017-04-14T03:00:46.085Z,8.90
2017-04-14T03:01:46.066Z,8.90
2017-04-14T03:02:46.023Z,8.90
2017-04-14T03:03:46.556Z,8.80
2017-04-14T03:04:46.664Z,8.80
2017-04-14T03:05:47.008Z,8.80
2017-04-14T03:06:46.987Z,8.80
2017-04-14T03:07:46.938Z,8.70
2017-04-14T03:08:46.847Z,8.70
2017-04-14T03:09:46.808Z,8.70
2017-04-14T03:10:47.073Z,8.70
2017-04-14T03:11:47.009Z,8.70
2017-04-14T03:12:47.683Z,8.70
2017-04-14T03:13:47.683Z,8.70
2017-04-14T03:14:47.677Z,8.60
2017-04-14T03:15:48.020Z,8.60
2017-04-14T03:16:48.010Z,8.60
2017-04-14T03:17:47.958Z,8.60
2017-04-14T03:18:47.854Z,8.60
2017-04-14T03:19:47.883Z,8.60
2017-04-14T03:20:48.948Z,8.60
2017-04-14T03:21:48.895Z,8.50
2017-04-14T03:22:48.837Z,8.50
2017-04-14T03:23:48.798Z,8.50
2017-04-14T03:24:48.807Z,8.50
2017-04-14T03:25:49.116Z,8.50
2017-04-14T03:26:48.819Z,8.50
2017-04-14T03:27:48.650Z,8.40
2017-04-14T03:28:48.345Z,8.50
2017-04-14T03:29:48.145Z,8.40
2017-04-14T03:30:48.929Z,8.50
2017-04-14T03:31:49.261Z,8.50
2017-04-14T03:32:48.976Z,8.50
2017-04-14T03:33:48.995Z,8.50
2017-04-14T03:34:48.968Z,8.50
2017-04-14T03:35:48.991Z,8.50
2017-04-14T03:36:50.102Z,8.50
2017-04-14T03:37:50.124Z,8.50
2017-04-14T03:38:50.073Z,8.50
2017-04-14T03:39:50.123Z,8.60
2017-04-14T03:40:50.102Z,8.60
2017-04-14T03:41:50.439Z,8.60
2017-04-14T03:42:50.441Z,8.60
2017-04-14T03:43:50.406Z,8.60
2017-04-14T03:44:50.368Z,8.60
2017-04-14T03:45:50.396Z,8.60
2017-04-14T03:46:50.668Z,8.70
2017-04-14T03:47:50.585Z,8.70
2017-04-14T03:48:50.522Z,8.70
2017-04-14T03:49:50.971Z,8.70
2017-04-14T03:50:50.930Z,8.70
2017-04-14T03:51:52.053Z,8.70
2017-04-14T03:52:52.076Z,8.70
2017-04-14T03:53:52.037Z,8.80
2017-04-14T03:54:51.973Z,8.80
2017-04-14T03:55:51.962Z,8.80
2017-04-14T03:56:51.943Z,8.80
2017-04-14T03:57:51.900Z,8.80
2017-04-14T03:58:52.589Z,8.80
2017-04-14T03:59:52.623Z,8.90
2017-04-14T04:00:52.591Z,8.90
2017-04-14T04:01:52.603Z,8.90
2017-04-14T04:02:52.867Z,8.90
2017-04-14T04:03:52.837Z,8.90
2017-04-14T04:04:52.898Z,8.90
2017-04-14T04:05:52.665Z,8.90
2017-04-14T04:06:52.568Z,8.90
2017-04-14T04:07:53.578Z,8.90
2017-04-14T04:08:53.603Z,8.90
2017-04-14T04:09:54.359Z,8.90
2017-04-14T04:10:54.260Z,8.90
2017-04-14T04:11:54.270Z,8.90
2017-04-14T04:12:54.623Z,9.00
2017-04-14T04:13:54.541Z,9.00
2017-04-14T04:14:54.460Z,9.00
2017-04-14T04:15:54.464Z,9.00
2017-04-14T04:16:55.148Z,9.00
2017-04-14T04:17:55.467Z,9.00
2017-04-14T04:18:55.409Z,9.00
2017-04-14T04:19:56.374Z,9.00
2017-04-14T04:20:56.346Z,9.00
2017-04-14T04:21:56.323Z,9.00
2017-04-14T04:22:56.625Z,9.00
2017-04-14T04:23:56.490Z,9.00
2017-04-14T04:24:56.483Z,9.00
2017-04-14T04:25:56.417Z,9.00
2017-04-14T04:26:56.374Z,9.00
2017-04-14T04:27:57.383Z,9.00
2017-04-14T04:28:57.304Z,9.00
2017-04-14T04:29:58.021Z,8.90
2017-04-14T04:30:58.015Z,8.90
2017-04-14T04:33:03.483Z,8.90
2017-04-14T04:34:08.903Z,9.00
2017-04-14T04:35:09.649Z,8.90
2017-04-14T04:36:09.589Z,9.00
2017-04-14T04:37:09.571Z,9.00
2017-04-14T04:38:09.818Z,9.00
2017-04-14T04:39:09.806Z,9.00
2017-04-14T04:40:10.531Z,9.00
2017-04-14T04:41:10.583Z,9.00
2017-04-14T04:42:11.352Z,9.00
2017-04-14T04:43:11.698Z,9.00
2017-04-14T04:44:11.691Z,9.00
2017-04-14T04:45:11.688Z,9.10
2017-04-14T04:46:11.634Z,9.10
2017-04-14T04:47:11.613Z,9.10
2017-04-14T04:48:12.647Z,9.10
2017-04-14T04:49:12.700Z,9.20
2017-04-14T04:50:12.746Z,9.40
2017-04-14T04:51:12.760Z,9.50
2017-04-14T04:52:12.787Z,9.60
2017-04-14T04:53:13.203Z,9.80
2017-04-14T04:54:12.984Z,10.00
2017-04-14T04:55:12.943Z,10.10
2017-04-14T04:56:12.906Z,10.20
2017-04-14T04:57:12.908Z,10.40
2017-04-14T04:58:12.742Z,10.40
2017-04-14T04:59:13.075Z,10.50
2017-04-14T05:00:13.165Z,10.50
2017-04-14T05:01:13.139Z,10.50
2017-04-14T05:02:13.125Z,10.60
2017-04-14T05:03:13.177Z,10.70
2017-04-14T05:04:13.292Z,10.80
2017-04-14T05:05:13.318Z,10.90
2017-04-14T05:06:13.267Z,11.00
2017-04-14T05:07:13.235Z,11.00
2017-04-14T05:08:13.188Z,11.10
2017-04-14T05:09:13.603Z,11.20
2017-04-14T05:10:13.635Z,11.30
2017-04-14T05:11:13.658Z,11.30
2017-04-14T05:12:13.754Z,11.30
2017-04-14T05:13:13.795Z,11.40
2017-04-14T05:14:14.857Z,11.30
2017-04-14T05:15:14.856Z,11.30
2017-04-14T05:16:14.695Z,11.30
2017-04-14T05:17:14.555Z,11.20
2017-04-14T05:18:14.585Z,11.10
2017-04-14T05:19:14.991Z,11.00
2017-04-14T05:20:14.701Z,10.90
2017-04-14T05:21:14.696Z,10.80
2017-04-14T05:22:14.666Z,10.70
2017-04-14T05:23:14.652Z,10.70
2017-04-14T05:24:14.658Z,10.60
2017-04-14T05:25:14.677Z,10.50
2017-04-14T05:26:14.619Z,10.40
2017-04-14T05:27:14.353Z,10.40
2017-04-14T05:28:14.398Z,10.40
2017-04-14T05:29:14.745Z,10.40
2017-04-14T05:30:14.681Z,10.30
2017-04-14T05:31:14.641Z,10.30
2017-04-14T05:32:14.682Z,10.30
2017-04-14T05:33:14.668Z,10.20
2017-04-14T05:34:15.119Z,10.30
2017-04-14T05:35:15.129Z,10.20
2017-04-14T05:36:14.834Z,10.20
2017-04-14T05:37:14.565Z,10.30
2017-04-14T05:38:14.570Z,10.30
2017-04-14T05:39:16.241Z,10.20
2017-04-14T05:40:15.982Z,10.20
2017-04-14T05:41:15.770Z,10.20
2017-04-14T05:42:15.767Z,10.20
2017-04-14T05:43:15.796Z,10.20
2017-04-14T05:44:15.782Z,10.20
2017-04-14T05:45:16.474Z,10.20
2017-04-14T05:46:16.481Z,10.20
2017-04-14T05:47:16.506Z,10.10
2017-04-14T05:48:16.641Z,10.20
2017-04-14T05:49:16.605Z,10.20
2017-04-14T05:50:16.932Z,10.20
2017-04-14T05:51:16.872Z,10.20
2017-04-14T05:52:16.797Z,10.20
2017-04-14T05:53:16.754Z,10.20
2017-04-14T05:54:16.699Z,10.20
2017-04-14T05:55:16.640Z,10.20
2017-04-14T05:56:16.936Z,10.20
2017-04-14T05:57:16.925Z,10.20
2017-04-14T05:58:16.941Z,10.30
2017-04-14T05:59:16.887Z,10.30
2017-04-14T06:00:16.848Z,10.30
2017-04-14T06:01:17.129Z,10.30
2017-04-14T06:02:17.127Z,10.30
2017-04-14T06:03:17.074Z,10.30
2017-04-14T06:04:17.161Z,10.30
2017-04-14T06:05:17.891Z,10.30
2017-04-14T06:06:18.256Z,10.30
2017-04-14T06:07:18.268Z,10.30
2017-04-14T06:08:18.228Z,10.30
2017-04-14T06:09:18.202Z,10.30
2017-04-14T06:10:18.145Z,10.20
2017-04-14T06:11:18.446Z,10.20
2017-04-14T06:12:18.412Z,10.20
2017-04-14T06:13:19.152Z,10.30
2017-04-14T06:14:18.853Z,10.30
2017-04-14T06:15:18.857Z,10.30
2017-04-14T06:16:19.127Z,10.30
2017-04-14T06:17:19.942Z,10.30
2017-04-14T06:18:19.974Z,10.30
2017-04-14T06:19:20.052Z,10.30
2017-04-14T06:20:20.084Z,10.30
2017-04-14T06:21:20.346Z,10.30
2017-04-14T06:22:20.686Z,10.30
2017-04-14T06:23:20.623Z,10.30
2017-04-14T06:24:21.351Z,10.30
2017-04-14T06:25:22.089Z,10.40
2017-04-14T06:26:22.513Z,10.40
2017-04-14T06:27:22.503Z,10.40
2017-04-14T06:28:22.432Z,10.50
2017-04-14T06:29:22.403Z,10.50
2017-04-14T06:30:22.927Z,10.50
2017-04-14T06:31:23.322Z,10.60
2017-04-14T06:32:23.630Z,10.60
2017-04-14T06:33:23.592Z,10.60
2017-04-14T06:34:23.535Z,10.60
2017-04-14T06:35:23.265Z,10.60
2017-04-14T06:36:23.661Z,10.70
2017-04-14T06:37:23.754Z,10.60
2017-04-14T06:38:24.321Z,10.70
2017-04-14T06:39:24.237Z,10.70
2017-04-14T06:40:24.227Z,10.70
2017-04-14T06:41:24.500Z,10.70
2017-04-14T06:42:24.489Z,10.80
2017-04-14T06:43:24.392Z,10.80
2017-04-14T06:44:24.425Z,10.70
2017-04-14T06:45:24.414Z,10.70
2017-04-14T06:46:24.825Z,10.70
2017-04-14T06:47:24.835Z,10.70
2017-04-14T06:48:24.824Z,10.70
2017-04-14T06:49:25.286Z,10.70
2017-04-14T06:50:25.339Z,10.70
2017-04-14T06:51:25.639Z,10.60
2017-04-14T06:52:26.473Z,10.60
2017-04-14T06:53:27.252Z,10.60
2017-04-14T06:54:27.245Z,10.50
2017-04-14T06:55:27.266Z,10.50
2017-04-14T06:56:28.282Z,10.40
2017-04-14T06:57:28.285Z,10.40
2017-04-14T06:58:28.291Z,10.40
2017-04-14T06:59:28.263Z,10.40
2017-04-14T07:00:28.271Z,10.40
2017-04-14T07:01:28.583Z,10.40
2017-04-14T07:02:28.732Z,10.40
2017-04-14T07:03:28.727Z,10.50
2017-04-14T07:04:28.760Z,10.50
2017-04-14T07:05:28.734Z,10.50
2017-04-14T07:06:28.858Z,10.50
2017-04-14T07:07:28.881Z,10.50
2017-04-14T07:08:28.889Z,10.40
2017-04-14T07:09:28.840Z,10.40
2017-04-14T07:10:28.833Z,10.50
2017-04-14T07:11:29.181Z,10.50
2017-04-14T07:12:29.182Z,10.50
2017-04-14T07:13:31.668Z,10.50
2017-04-14T07:14:31.795Z,10.50
2017-04-14T07:15:31.792Z,10.50
2017-04-14T07:16:32.127Z,10.50
2017-04-14T07:17:32.192Z,10.40
2017-04-14T07:18:31.926Z,10.40
2017-04-14T07:19:31.984Z,10.40
2017-04-14T07:20:31.977Z,10.40
2017-04-14T07:21:32.146Z,10.40
2017-04-14T07:22:32.898Z,10.30
2017-04-14T07:23:32.931Z,10.30
2017-04-14T07:24:32.869Z,10.30
2017-04-14T07:25:33.518Z,10.40
2017-04-14T07:26:33.958Z,10.40
2017-04-14T07:27:33.918Z,10.40
2017-04-14T07:28:34.743Z,10.40
2017-04-14T07:29:35.565Z,10.40
2017-04-14T07:30:36.346Z,10.40
2017-04-14T07:31:36.627Z,10.40
2017-04-14T07:32:36.657Z,10.40
2017-04-14T07:33:36.607Z,10.50
2017-04-14T07:34:36.592Z,10.50
2017-04-14T07:35:36.630Z,10.50
2017-04-14T07:36:37.758Z,10.50
2017-04-14T07:37:37.744Z,10.50
2017-04-14T07:38:37.726Z,10.60
2017-04-14T07:39:37.719Z,10.60
2017-04-14T07:40:37.772Z,10.60
2017-04-14T07:41:38.096Z,10.60
2017-04-14T07:42:38.856Z,10.60
2017-04-14T07:43:38.703Z,10.60
2017-04-14T07:44:38.747Z,10.60
2017-04-14T07:45:38.756Z,10.60
2017-04-14T07:46:39.023Z,10.60
2017-04-14T07:47:39.047Z,10.60
2017-04-14T07:48:38.986Z,10.70
2017-04-14T07:49:39.262Z,10.70
2017-04-14T07:50:40.275Z,10.70
2017-04-14T07:51:40.578Z,10.80
2017-04-14T07:52:40.586Z,10.80
2017-04-14T07:53:40.316Z,10.80
2017-04-14T07:54:40.049Z,10.90
2017-04-14T07:55:40.874Z,10.90
2017-04-14T07:56:40.946Z,10.90
2017-04-14T07:57:40.960Z,11.00
2017-04-14T07:58:40.961Z,11.00
2017-04-14T07:59:41.735Z,11.10
2017-04-14T08:00:41.670Z,11.10
2017-04-14T08:01:41.981Z,11.10
2017-04-14T08:02:41.711Z,11.10
2017-04-14T08:03:41.709Z,11.10
2017-04-14T08:04:42.488Z,11.10
2017-04-14T08:05:42.556Z,11.10
2017-04-14T08:06:42.924Z,11.10
2017-04-14T08:07:42.981Z,11.10
2017-04-14T08:08:42.957Z,11.10
2017-04-14T08:09:42.971Z,11.10
2017-04-14T08:10:43.691Z,11.00
2017-04-14T08:11:44.010Z,11.00
2017-04-14T08:12:44.727Z,10.90
2017-04-14T08:13:44.584Z,10.90
2017-04-14T08:14:44.637Z,10.90
2017-04-14T08:15:44.615Z,10.90
2017-04-14T08:16:44.767Z,10.90
2017-04-14T08:17:44.746Z,10.90
2017-04-14T08:18:44.755Z,10.90
2017-04-14T08:19:44.707Z,11.00
2017-04-14T08:20:44.955Z,11.00
2017-04-14T08:21:45.209Z,11.10
2017-04-14T08:22:45.151Z,11.10
2017-04-14T08:23:45.108Z,11.10
2017-04-14T08:24:45.799Z,11.10
2017-04-14T08:25:45.544Z,11.10
2017-04-14T08:26:45.913Z,11.10
2017-04-14T08:27:46.529Z,11.10
2017-04-14T08:28:46.570Z,11.10
2017-04-14T08:29:47.249Z,11.00
2017-04-14T08:30:47.242Z,11.00
2017-04-14T08:31:47.605Z,11.00
2017-04-14T08:32:47.553Z,10.90
2017-04-14T08:33:47.487Z,10.90
2017-04-14T08:34:47.476Z,11.00
2017-04-14T08:35:47.480Z,11.00
2017-04-14T08:36:47.857Z,11.00
2017-04-14T08:37:48.525Z,11.00
2017-04-14T08:38:48.448Z,11.00
2017-04-14T08:39:48.432Z,11.10
2017-04-14T08:40:48.559Z,11.10
2017-04-14T08:41:48.886Z,11.10
2017-04-14T08:42:48.910Z,11.10
2017-04-14T08:43:48.869Z,11.10
2017-04-14T08:44:48.841Z,11.10
2017-04-14T08:45:48.791Z,11.10
2017-04-14T08:46:49.131Z,11.10
2017-04-14T08:47:49.119Z,11.10
2017-04-14T08:48:49.073Z,11.20
2017-04-14T08:49:49.029Z,11.20
2017-04-14T08:50:48.963Z,11.20
2017-04-14T08:51:49.015Z,11.20
2017-04-14T08:52:49.990Z,11.20
2017-04-14T08:53:50.479Z,11.20
2017-04-14T08:54:51.185Z,11.20
2017-04-14T08:55:51.892Z,11.20
2017-04-14T08:56:52.152Z,11.30
2017-04-14T08:57:52.113Z,11.30
2017-04-14T08:58:52.065Z,11.30
2017-04-14T08:59:52.093Z,11.30
2017-04-14T09:00:52.052Z,11.30
2017-04-14T09:01:52.292Z,11.40
2017-04-14T09:02:52.250Z,11.40
2017-04-14T09:03:52.265Z,11.40
2017-04-14T09:04:52.954Z,11.40
2017-04-14T09:05:52.921Z,11.50
2017-04-14T09:06:53.203Z,11.50
2017-04-14T09:07:53.873Z,11.50
2017-04-14T09:08:54.635Z,11.60
2017-04-14T09:09:54.656Z,11.60
2017-04-14T09:10:54.590Z,11.60
2017-04-14T09:11:54.909Z,11.60
2017-04-14T09:12:54.891Z,11.70
2017-04-14T09:13:54.899Z,11.60
2017-04-14T09:14:54.844Z,11.70
2017-04-14T09:15:54.790Z,11.70
2017-04-14T09:16:55.129Z,11.60
2017-04-14T09:17:55.057Z,11.70
2017-04-14T09:18:55.749Z,11.70
2017-04-14T09:19:55.646Z,11.70
2017-04-14T09:20:55.599Z,11.70
2017-04-14T09:21:55.915Z,11.70
2017-04-14T09:22:55.955Z,11.70
2017-04-14T09:23:55.901Z,11.70
2017-04-14T09:24:55.854Z,11.70
2017-04-14T09:25:55.795Z,11.70
2017-04-14T09:26:56.048Z,11.70
2017-04-14T09:27:56.261Z,11.70
2017-04-14T09:28:56.414Z,11.70
2017-04-14T09:29:56.386Z,11.70
2017-04-14T09:30:56.456Z,11.70
2017-04-14T09:31:56.856Z,11.70
2017-04-14T09:32:56.832Z,11.70
2017-04-14T09:33:56.605Z,11.80
2017-04-14T09:34:56.573Z,11.80
2017-04-14T09:35:56.536Z,11.80
2017-04-14T09:36:56.506Z,11.80
2017-04-14T09:37:57.540Z,11.90
2017-04-14T09:38:57.457Z,11.90
2017-04-14T09:39:57.422Z,11.90
2017-04-14T09:40:57.357Z,11.90
2017-04-14T09:41:57.687Z,11.90
2017-04-14T09:42:57.937Z,11.90
2017-04-14T09:43:57.887Z,11.90
2017-04-14T09:44:57.906Z,11.90
2017-04-14T09:45:57.873Z,11.90
2017-04-14T09:46:57.881Z,11.80
2017-04-14T09:47:58.185Z,11.80
2017-04-14T09:48:58.143Z,11.80
2017-04-14T09:49:57.819Z,11.80
2017-04-14T09:50:57.621Z,11.80
2017-04-14T09:51:57.351Z,11.80
2017-04-14T09:52:57.417Z,11.80
2017-04-14T09:53:58.541Z,11.80
2017-04-14T09:54:58.601Z,11.80
2017-04-14T09:55:58.619Z,11.80
2017-04-14T09:56:58.587Z,11.80
2017-04-14T09:57:58.570Z,11.80
2017-04-14T09:58:58.860Z,11.80
2017-04-14T09:59:58.825Z,11.70
2017-04-14T10:00:58.829Z,11.70
2017-04-14T10:01:58.817Z,11.70
2017-04-14T10:02:58.780Z,11.70
2017-04-14T10:03:58.930Z,11.70
2017-04-14T10:04:58.937Z,11.60
2017-04-14T10:05:58.894Z,11.60
2017-04-14T10:06:58.643Z,11.60
2017-04-14T10:07:58.655Z,11.60
2017-04-14T10:08:58.954Z,11.50
2017-04-14T10:09:59.771Z,11.50
2017-04-14T10:10:59.750Z,11.50
2017-04-14T10:11:59.732Z,11.50
2017-04-14T10:12:59.697Z,11.50
2017-04-14T10:14:00.722Z,11.50
2017-04-14T10:15:00.802Z,11.50
2017-04-14T10:16:01.047Z,11.50
2017-04-14T10:17:01.770Z,11.50
2017-04-14T10:18:01.772Z,11.50
2017-04-14T10:19:02.903Z,11.50
2017-04-14T10:20:03.617Z,11.50
2017-04-14T10:21:03.641Z,11.60
2017-04-14T10:22:03.651Z,11.60
2017-04-14T10:23:03.628Z,11.60
2017-04-14T10:24:04.656Z,11.70
2017-04-14T10:25:04.589Z,11.70
2017-04-14T10:26:04.620Z,11.80
2017-04-14T10:27:04.613Z,11.80
2017-04-14T10:28:04.601Z,11.90
2017-04-14T10:29:05.619Z,12.00
2017-04-14T10:30:05.608Z,12.10
2017-04-14T10:31:05.602Z,12.10
2017-04-14T10:32:05.619Z,12.20
2017-04-14T10:33:05.649Z,12.20
2017-04-14T10:34:06.826Z,12.30
2017-04-14T10:35:06.808Z,12.40
2017-04-14T10:36:06.802Z,12.50
2017-04-14T10:37:07.445Z,12.50
2017-04-14T10:38:07.431Z,12.60
2017-04-14T10:39:08.522Z,12.70
2017-04-14T10:40:08.521Z,12.70
2017-04-14T10:41:08.505Z,12.80
2017-04-14T10:42:08.466Z,12.80
2017-04-14T10:43:09.356Z,12.70
2017-04-14T10:44:09.412Z,12.70
2017-04-14T10:45:09.927Z,12.80
2017-04-14T10:46:09.671Z,12.80
2017-04-14T10:47:09.640Z,12.80
2017-04-14T10:48:09.646Z,12.90
2017-04-14T10:49:09.924Z,12.80
2017-04-14T10:50:09.677Z,12.90
2017-04-14T10:51:09.657Z,12.90
2017-04-14T10:52:10.364Z,12.90
2017-04-14T10:53:10.414Z,12.90
2017-04-14T10:54:10.670Z,12.90
2017-04-14T10:55:10.409Z,12.80
2017-04-14T10:56:10.120Z,12.80
2017-04-14T10:57:10.128Z,12.80
2017-04-14T10:58:10.097Z,12.70
2017-04-14T10:59:11.206Z,12.70
2017-04-14T11:00:11.184Z,12.80
2017-04-14T11:01:11.190Z,12.80
2017-04-14T11:02:11.220Z,12.90
2017-04-14T11:03:11.185Z,12.90
2017-04-14T11:04:11.427Z,13.00
2017-04-14T11:05:11.378Z,13.00
2017-04-14T11:06:11.357Z,13.10
2017-04-14T11:07:11.283Z,13.10
2017-04-14T11:08:11.995Z,13.10
2017-04-14T11:09:12.307Z,13.20
2017-04-14T11:10:12.294Z,13.20
2017-04-14T11:11:12.251Z,13.20
2017-04-14T11:12:12.310Z,13.30
2017-04-14T11:13:12.240Z,13.30
2017-04-14T11:14:13.377Z,13.30
2017-04-14T11:15:13.350Z,13.40
2017-04-14T11:16:13.333Z,13.40
2017-04-14T11:17:13.514Z,13.40
2017-04-14T11:18:13.489Z,13.50
2017-04-14T11:19:13.811Z,13.50
2017-04-14T11:20:14.544Z,13.50
2017-04-14T11:21:14.522Z,13.50
2017-04-14T11:22:14.497Z,13.60
2017-04-14T11:23:14.465Z,13.70
2017-04-14T11:24:14.582Z,13.80
2017-04-14T11:25:15.331Z,13.90
2017-04-14T11:26:15.283Z,13.90
2017-04-14T11:27:15.264Z,14.00
2017-04-14T11:28:15.249Z,14.10
2017-04-14T11:29:15.580Z,14.10
2017-04-14T11:30:15.656Z,14.10
2017-04-14T11:31:15.707Z,14.20
2017-04-14T11:32:15.714Z,14.20
2017-04-14T11:33:15.681Z,14.20
2017-04-14T11:34:16.052Z,14.30
2017-04-14T11:35:15.985Z,14.40
2017-04-14T11:36:15.826Z,14.50
2017-04-14T11:37:15.670Z,14.50
2017-04-14T11:38:16.646Z,14.60
2017-04-14T11:39:18.006Z,14.60
2017-04-14T11:40:17.845Z,14.70
2017-04-14T11:41:17.775Z,14.70
2017-04-14T11:43:48.683Z,14.80
2017-04-14T11:44:49.045Z,14.80
2017-04-14T11:45:49.112Z,14.90
2017-04-14T11:46:49.056Z,15.00
2017-04-14T11:47:49.000Z,15.10
2017-04-14T11:48:49.085Z,15.10
2017-04-14T11:49:49.405Z,15.20
2017-04-14T11:50:49.460Z,15.20
2017-04-14T11:51:49.422Z,15.30
2017-04-14T11:52:49.411Z,15.30
2017-04-14T11:53:49.457Z,15.30
2017-04-14T11:54:49.834Z,15.30
2017-04-14T11:55:49.878Z,15.40
2017-04-14T11:56:50.589Z,15.40
2017-04-14T11:57:50.375Z,15.50
2017-04-14T11:58:50.105Z,15.50
2017-04-14T11:59:52.333Z,15.60
2017-04-14T12:00:52.385Z,15.70
2017-04-14T12:01:52.332Z,15.70
2017-04-14T12:02:52.391Z,15.80
2017-04-14T12:03:52.336Z,15.90
2017-04-14T12:04:52.692Z,15.90
2017-04-14T12:05:53.413Z,15.90
2017-04-14T12:06:54.228Z,16.00
2017-04-14T12:07:54.239Z,16.10
2017-04-14T12:08:54.233Z,16.10
2017-04-14T12:09:54.559Z,16.20
2017-04-14T12:10:55.247Z,16.30
2017-04-14T12:11:55.222Z,16.40
2017-04-14T12:12:55.298Z,16.40
2017-04-14T12:13:56.057Z,16.50
2017-04-14T12:14:56.144Z,16.50
2017-04-14T12:15:56.122Z,16.60
2017-04-14T12:16:56.207Z,16.70
2017-04-14T12:17:55.954Z,16.80
2017-04-14T12:18:56.723Z,16.90
2017-04-14T12:19:57.832Z,16.90
2017-04-14T12:20:57.873Z,17.00
2017-04-14T12:21:57.844Z,17.10
2017-04-14T12:22:57.800Z,17.10
2017-04-14T12:23:57.754Z,17.10
2017-04-14T12:24:58.104Z,17.10
2017-04-14T12:25:58.067Z,17.10
2017-04-14T12:26:58.057Z,17.00
2017-04-14T12:27:58.889Z,16.90
2017-04-14T12:28:58.872Z,17.00
2017-04-14T12:29:59.994Z,17.00
2017-04-14T12:30:59.959Z,16.90
2017-04-14T12:31:59.889Z,16.80
2017-04-14T12:32:59.918Z,16.70
2017-04-14T12:33:59.736Z,16.70
2017-04-14T12:35:00.126Z,16.70
2017-04-14T12:36:00.094Z,16.70
2017-04-14T12:36:59.856Z,16.70
2017-04-14T12:38:00.539Z,16.80
2017-04-14T12:39:00.379Z,16.90
2017-04-14T12:40:01.415Z,16.90
2017-04-14T12:41:01.819Z,17.00
2017-04-14T12:42:02.344Z,17.00
2017-04-14T12:43:02.170Z,17.00
2017-04-14T12:44:01.944Z,17.10
2017-04-14T12:45:02.360Z,17.20
2017-04-14T12:46:03.091Z,17.10
2017-04-14T12:47:03.782Z,17.10
2017-04-14T12:48:03.615Z,17.10
2017-04-14T12:49:03.576Z,17.10
2017-04-14T12:50:04.006Z,17.00
2017-04-14T12:51:03.959Z,17.00
2017-04-14T12:52:03.940Z,16.90
2017-04-14T12:53:03.918Z,16.80
2017-04-14T12:54:04.238Z,16.60
2017-04-14T12:55:05.482Z,16.50
2017-04-14T12:56:05.405Z,16.50
2017-04-14T12:57:05.477Z,16.40
2017-04-14T12:58:05.428Z,16.40
2017-04-14T12:59:05.402Z,16.20
2017-04-14T13:00:05.794Z,16.20
2017-04-14T13:01:05.802Z,16.10
2017-04-14T13:02:05.800Z,16.10
2017-04-14T13:03:05.790Z,16.10
2017-04-14T13:04:06.638Z,16.10
2017-04-14T13:05:06.955Z,16.20